Time;durP1;ratioP1;P1;durP2;ratioP2;P2;SDS_P1;SDS_P2;PMS_P1;PMS_P2;Temp;Humidity;BMP_temperature;BMP_pressure;BME280_temperature;BME280_humidity;BME280_pressure;Samples;Min_cycle;Max_cycle;Signal;HPM_P1;HPM_P2
2022/12/25 00:00:22;;;;;;;25.15;6.70;;;;;;;4.19;58.30;101414.06;4894594;29;20760;-71
2022/12/25 00:02:48;;;;;;;25.75;6.75;;;;;;;4.17;58.21;101410.63;4890826;28;20429;-71
2022/12/25 00:05:13;;;;;;;24.65;7.30;;;;;;;4.12;58.61;101405.47;4894715;29;20249;-71
2022/12/25 00:07:39;;;;;;;39.05;6.93;;;;;;;4.27;58.56;101404.50;4892452;28;20066;-73
2022/12/25 00:10:08;;;;;;;18.10;6.43;;;;;;;4.27;58.23;101390.72;4893656;29;20031;-73
2022/12/25 00:12:34;;;;;;;35.85;6.88;;;;;;;4.15;58.01;101402.00;4892424;28;20048;-72
2022/12/25 00:14:59;;;;;;;23.08;6.10;;;;;;;4.01;58.54;101400.34;4891549;29;20051;-74
2022/12/25 00:17:24;;;;;;;23.52;6.63;;;;;;;4.14;57.95;101397.69;4906159;28;20052;-75
2022/12/25 00:19:50;;;;;;;13.80;5.55;;;;;;;4.14;58.12;101395.09;4912050;29;20032;-72
2022/12/25 00:22:15;;;;;;;19.98;7.30;;;;;;;4.14;58.41;101397.69;4900122;28;20295;-73
2022/12/25 00:24:41;;;;;;;27.70;6.25;;;;;;;4.07;58.41;101390.81;4891979;29;20071;-73
2022/12/25 00:27:07;;;;;;;28.50;7.88;;;;;;;4.11;58.18;101395.13;4906140;29;20036;-74
2022/12/25 00:29:32;;;;;;;33.40;6.18;;;;;;;4.08;58.24;101395.16;4912291;29;20036;-73
2022/12/25 00:31:59;;;;;;;27.08;7.45;;;;;;;4.07;58.14;101407.19;4911740;28;20048;-72
2022/12/25 00:34:24;;;;;;;26.80;7.22;;;;;;;3.99;58.35;101407.25;4911773;29;20095;-73
2022/12/25 00:36:50;;;;;;;44.08;8.13;;;;;;;3.64;59.35;101424.59;4910165;28;20114;-72
2022/12/25 00:39:18;;;;;;;25.10;7.88;;;;;;;3.97;58.81;101428.81;4911862;29;20368;-72
2022/12/25 00:44:28;;;;;;;29.92;9.00;;;;;;;4.08;58.67;101431.38;4910210;29;20043;-72
2022/12/25 00:46:53;;;;;;;27.88;9.35;;;;;;;4.02;59.10;101432.22;4908734;28;20047;-70
2022/12/25 00:49:21;;;;;;;28.27;9.50;;;;;;;4.15;58.35;101418.38;4911412;29;20556;-71
2022/12/25 00:51:48;;;;;;;32.40;7.90;;;;;;;4.18;58.15;101409.75;4907204;28;20233;-73
2022/12/25 00:54:13;;;;;;;25.52;9.45;;;;;;;4.20;57.98;101405.41;4911812;29;20517;-72
2022/12/25 00:56:39;;;;;;;32.35;8.50;;;;;;;4.14;58.51;101405.44;4907869;28;20043;-73
2022/12/25 00:59:05;;;;;;;27.83;9.60;;;;;;;4.17;58.24;101410.63;4912786;29;20040;-72
2022/12/25 01:01:31;;;;;;;36.10;10.15;;;;;;;3.89;59.05;101407.28;4904621;28;20135;-73
2022/12/25 01:03:56;;;;;;;27.45;9.38;;;;;;;3.74;58.98;101405.63;4890826;29;20336;-72
2022/12/25 01:06:22;;;;;;;28.35;9.07;;;;;;;4.00;58.71;101408.94;4896367;28;20131;-72
2022/12/25 01:11:31;;;;;;;21.13;8.23;;;;;;;3.97;58.50;101424.50;4902996;28;20479;-73
2022/12/25 01:13:57;;;;;;;40.03;9.85;;;;;;;3.98;58.76;101421.06;4891226;29;20036;-71
2022/12/25 01:16:25;;;;;;;29.75;9.73;;;;;;;3.99;58.63;101422.75;4890288;28;20107;-71
2022/12/25 01:18:51;;;;;;;39.13;9.55;;;;;;;3.71;59.33;101439.22;4891779;29;20032;-70
2022/12/25 01:21:21;;;;;;;52.80;9.95;;;;;;;3.55;59.88;101431.50;4892044;28;20075;-70
2022/12/25 01:23:50;;;;;;;20.52;7.57;;;;;;;3.67;59.73;101429.75;4902489;29;20067;-69
2022/12/25 01:26:17;;;;;;;42.80;8.65;;;;;;;3.80;59.28;101428.84;4891480;28;20152;-69
2022/12/25 01:28:42;;;;;;;43.42;10.05;;;;;;;3.84;59.11;101433.16;4890560;29;20051;-69
2022/12/25 01:31:11;;;;;;;70.30;9.65;;;;;;;3.62;59.72;101426.31;4892485;28;20087;-69
2022/12/25 01:33:41;;;;;;;28.35;8.35;;;;;;;3.62;59.56;101418.56;4888524;29;20432;-72
2022/12/25 01:36:15;;;;;;;29.13;8.77;;;;;;;3.89;59.18;101421.06;4891859;28;20055;-72
2022/12/25 01:38:40;;;;;;;40.60;9.75;;;;;;;3.78;59.23;101409.88;4890362;29;20042;-72
2022/12/25 01:41:06;;;;;;;59.78;9.23;;;;;;;3.89;58.92;101426.22;4893199;28;20051;-72
2022/12/25 01:43:34;;;;;;;35.63;7.72;;;;;;;3.88;58.81;101423.66;4890814;29;22374;-71
2022/12/25 01:46:02;;;;;;;20.08;8.60;;;;;;;4.05;58.58;101431.34;4889688;28;20036;-74
2022/12/25 01:48:37;;;;;;;41.83;8.50;;;;;;;3.94;58.84;101428.78;4891574;29;20553;-73
2022/12/25 01:51:19;;;;;;;13.27;6.93;;;;;;;4.01;58.61;101423.63;4892155;28;20106;-72
2022/12/25 01:53:45;;;;;;;22.05;8.25;;;;;;;4.08;58.53;101432.22;4887614;29;20483;-74
2022/12/25 01:56:10;;;;;;;26.85;8.55;;;;;;;3.90;58.65;101433.13;4892332;28;20048;-74
2022/12/25 01:58:36;;;;;;;21.23;7.65;;;;;;;3.87;58.90;101432.28;4890966;29;20624;-73
2022/12/25 02:01:04;;;;;;;13.60;6.78;;;;;;;3.84;59.13;101427.97;4893331;28;20154;-74
2022/12/25 02:03:30;;;;;;;20.90;8.27;;;;;;;3.81;58.70;101433.16;4909208;29;20048;-73
2022/12/25 02:05:57;;;;;;;27.63;7.82;;;;;;;3.76;58.77;101450.41;4908471;28;20039;-73
2022/12/25 02:08:25;;;;;;;43.38;8.75;;;;;;;3.64;59.21;101453.03;4911440;29;20500;-75
2022/12/25 02:10:50;;;;;;;27.35;8.60;;;;;;;3.73;58.74;101456.44;4907628;28;20039;-74
2022/12/25 02:13:18;;;;;;;19.52;8.18;;;;;;;3.67;58.72;101450.44;4909670;29;20039;-74
2022/12/25 02:15:43;;;;;;;20.95;7.20;;;;;;;3.71;59.07;101442.66;4905914;28;20042;-72
2022/12/25 02:18:37;;;;;;;25.30;7.22;;;;;;;3.73;58.82;101434.91;4911019;29;20037;-73
2022/12/25 02:21:25;;;;;;;15.43;6.82;;;;;;;3.54;59.36;101434.94;4908575;28;20217;-73
2022/12/25 02:23:56;;;;;;;29.73;8.35;;;;;;;3.29;60.16;101439.31;4908091;29;20035;-73
2022/12/25 02:26:50;;;;;;;75.63;7.23;;;;;;;3.41;59.52;101453.91;4903022;28;20047;-72
2022/12/25 02:30:02;;;;;;;35.20;9.20;;;;;;;3.43;59.80;101447.03;4887251;29;20064;-73
2022/12/25 02:32:38;;;;;;;17.50;8.25;;;;;;;3.42;59.71;101444.44;4904404;28;20513;-73
2022/12/25 02:35:16;;;;;;;34.58;9.05;;;;;;;3.32;60.18;101444.44;4910510;29;20035;-71
2022/12/25 02:37:55;;;;;;;18.73;7.93;;;;;;;3.42;59.34;101437.53;4907860;28;20464;-71
2022/12/25 02:40:31;;;;;;;32.30;9.52;;;;;;;3.28;59.94;101440.09;4908576;29;20126;-73
2022/12/25 03:08:26;;;;;;;32.67;9.52;;;;;;;3.04;59.62;101420.31;4903681;29;20131;-72
2022/12/25 03:13:50;;;;;;;23.58;8.30;;;;;;;3.06;58.81;101421.16;4888808;29;20084;-74
2022/12/25 03:26:53;;;;;;;18.77;7.13;;;;;;;3.05;58.88;101409.13;4891957;29;20761;-74
2022/12/25 03:27:14;;;;;;;23.85;7.82;;;;;;;2.95;59.43;101381.56;4900382;28;20052;-76
2022/12/25 03:32:40;;;;;;;25.17;7.15;;;;;;;2.96;59.11;101368.66;4893016;29;20078;-77
2022/12/25 03:35:32;;;;;;;27.00;8.15;;;;;;;3.02;59.54;101372.94;4892934;29;20066;-77
2022/12/25 04:37:41;;;;;;;33.90;11.32;;;;;;;4.29;59.96;101322.56;4907206;28;20521;-73
2022/12/25 04:40:07;;;;;;;43.63;11.98;;;;;;;4.04;60.39;101323.59;4913380;29;20027;-72
2022/12/25 04:42:33;;;;;;;31.48;11.00;;;;;;;3.92;61.44;101312.44;4910695;28;20425;-72
2022/12/25 04:44:58;;;;;;;35.85;11.57;;;;;;;4.10;60.38;101301.13;4918660;29;20024;-71
2022/12/25 04:47:24;;;;;;;27.17;10.43;;;;;;;3.92;61.50;101299.50;4913277;28;20051;-74
2022/12/25 04:49:49;;;;;;;45.17;11.07;;;;;;;4.25;60.17;101291.53;4913057;29;20631;-74
2022/12/25 04:52:15;;;;;;;29.65;10.45;;;;;;;4.31;60.40;101287.19;4900486;28;20819;-72
2022/12/25 04:54:40;;;;;;;24.85;10.32;;;;;;;4.01;61.05;101291.69;4891081;29;20102;-71
2022/12/25 04:57:06;;;;;;;34.33;10.35;;;;;;;4.42;60.08;101287.09;4893875;28;20584;-74
2022/12/25 04:59:31;;;;;;;23.33;9.80;;;;;;;4.33;60.36;101292.34;4892139;29;20170;-71
2022/12/25 05:01:59;;;;;;;43.00;9.48;;;;;;;4.34;60.04;101300.13;4901910;28;20653;-71
2022/12/25 05:04:24;;;;;;;19.67;7.93;;;;;;;4.53;59.91;101299.97;4907136;29;20400;-72
2022/12/25 05:06:50;;;;;;;21.48;8.40;;;;;;;4.51;59.75;101293.94;4907271;28;20048;-72
2022/12/25 05:09:15;;;;;;;35.55;9.35;;;;;;;4.54;60.09;101291.31;4894780;29;20044;-70
2022/12/25 05:11:40;;;;;;;35.80;9.75;;;;;;;4.45;60.47;101297.41;4905637;28;20083;-68
2022/12/25 05:14:06;;;;;;;22.73;9.27;;;;;;;4.56;59.91;101298.19;4919751;28;20042;-70
2022/12/25 05:16:31;;;;;;;27.55;9.70;;;;;;;4.27;60.85;101303.59;4909558;28;20610;-69
2022/12/25 05:18:58;;;;;;;35.67;9.40;;;;;;;4.69;60.17;101301.56;4911382;29;20035;-70
2022/12/25 05:21:26;;;;;;;29.63;10.50;;;;;;;4.67;60.05;101305.88;4909926;28;20150;-71
2022/12/25 05:23:52;;;;;;;29.55;8.45;;;;;;;4.57;60.21;101305.09;4911266;29;20470;-71
2022/12/25 05:26:21;;;;;;;43.22;10.10;;;;;;;4.49;60.22;101314.66;4910310;28;20051;-71
2022/12/25 05:28:46;;;;;;;25.75;9.18;;;;;;;4.63;60.45;101312.84;4910497;29;20103;-71
2022/12/25 05:31:12;;;;;;;30.60;9.18;;;;;;;4.68;59.80;101315.38;4912649;28;20080;-69
2022/12/25 05:33:38;;;;;;;26.02;8.93;;;;;;;4.35;61.08;101322.53;4924606;28;20024;-71
2022/12/25 05:36:06;;;;;;;37.78;9.48;;;;;;;4.68;60.72;101315.38;4912447;28;20476;-71
2022/12/25 05:38:32;;;;;;;24.55;8.80;;;;;;;4.67;59.95;101318.81;4910064;29;20028;-70
2022/12/25 05:40:57;;;;;;;21.27;8.63;;;;;;;4.74;60.05;101315.31;4909404;28;20047;-71
2022/12/25 05:43:23;;;;;;;28.05;9.23;;;;;;;4.53;61.23;101325.84;4891793;29;20118;-71
2022/12/25 05:45:49;;;;;;;27.25;9.73;;;;;;;4.48;60.83;101325.03;4892108;28;20125;-71
2022/12/25 05:48:15;;;;;;;28.98;8.77;;;;;;;4.73;60.44;101321.38;4893885;29;20028;-71
2022/12/25 05:50:41;;;;;;;22.50;9.45;;;;;;;4.71;60.76;101325.69;4894092;29;20882;-74
2022/12/25 05:53:13;;;;;;;24.50;10.65;;;;;;;4.45;61.81;101322.44;4893497;28;20047;-74
2022/12/25 05:55:42;;;;;;;23.85;9.73;;;;;;;4.83;60.17;101330.78;4893834;29;20288;-74
2022/12/25 05:58:08;;;;;;;26.23;8.50;;;;;;;4.81;60.26;101327.34;4914964;29;20047;-74
2022/12/25 06:00:34;;;;;;;22.98;9.27;;;;;;;4.95;59.81;101314.31;4915821;29;20126;-74
2022/12/25 06:03:00;;;;;;;33.92;10.07;;;;;;;4.79;60.62;101316.16;4912832;28;20117;-71
2022/12/25 06:05:26;;;;;;;33.45;9.73;;;;;;;4.93;60.06;101325.56;4914884;29;20070;-73
2022/12/25 06:07:51;;;;;;;31.02;9.02;;;;;;;4.93;60.14;101330.75;4913973;28;20133;-73
2022/12/25 06:10:17;;;;;;;34.13;9.48;;;;;;;5.09;59.83;101331.44;4914842;29;20126;-74
2022/12/25 06:12:42;;;;;;;25.95;10.20;;;;;;;4.91;60.26;101327.31;4914783;28;20048;-74
2022/12/25 06:15:08;;;;;;;28.25;10.18;;;;;;;5.08;59.74;101330.59;4923339;29;20035;-79
2022/12/25 06:17:34;;;;;;;26.33;9.05;;;;;;;5.06;59.62;101332.34;4916953;28;20122;-70
2022/12/25 06:19:59;;;;;;;30.52;10.65;;;;;;;4.88;60.02;101323.00;4911766;29;20415;-75
2022/12/25 06:22:32;;;;;;;29.63;8.95;;;;;;;4.92;60.29;101324.72;4911045;28;21025;-75
2022/12/25 06:24:57;;;;;;;26.50;8.85;;;;;;;5.02;59.73;101309.94;4911743;29;20131;-74
2022/12/25 06:27:23;;;;;;;33.75;9.82;;;;;;;5.12;59.32;101308.94;4914030;28;20054;-75
2022/12/25 06:29:49;;;;;;;34.22;10.05;;;;;;;5.18;59.82;101308.88;4911688;29;20035;-74
2022/12/25 06:32:17;;;;;;;23.45;10.85;;;;;;;5.15;59.61;101311.53;4902073;28;20054;-75
2022/12/25 06:34:42;;;;;;;29.45;10.20;;;;;;;5.13;59.63;101313.25;4909536;29;20043;-74
2022/12/25 06:37:10;;;;;;;23.35;9.68;;;;;;;5.03;60.08;101316.81;4911515;28;20079;-74
2022/12/25 06:39:36;;;;;;;34.30;10.38;;;;;;;4.70;61.77;101310.16;4912284;29;20631;-76
2022/12/25 06:42:01;;;;;;;26.00;11.55;;;;;;;5.14;60.27;101311.53;4913224;28;20445;-76
2022/12/25 06:44:27;;;;;;;36.70;10.88;;;;;;;5.11;60.55;101311.56;4915832;29;20611;-76
2022/12/25 06:46:53;;;;;;;27.77;11.55;;;;;;;4.96;61.02;101330.69;4910468;28;20776;-71
2022/12/25 06:49:20;;;;;;;36.85;12.35;;;;;;;4.98;61.58;101319.44;4908541;28;20188;-72
2022/12/25 06:51:45;;;;;;;27.83;11.57;;;;;;;5.10;60.90;101318.50;4900472;28;20044;-70
2022/12/25 06:54:11;;;;;;;38.35;12.25;;;;;;;5.13;61.66;101322.78;4891561;29;20415;-72
2022/12/25 06:56:37;;;;;;;31.77;12.80;;;;;;;4.75;62.57;101317.03;4888954;28;20044;-73
2022/12/25 06:59:05;;;;;;;37.35;13.32;;;;;;;5.07;62.13;101318.50;4892135;29;20036;-71
2022/12/25 07:01:42;;;;;;;43.95;13.15;;;;;;;5.31;61.21;101322.56;4896130;28;20160;-72
2022/12/25 07:04:36;;;;;;;33.50;12.35;;;;;;;5.16;62.03;101317.56;4909724;29;20870;-72
2022/12/25 07:07:02;;;;;;;44.70;12.77;;;;;;;5.19;61.35;101318.41;4899142;28;20052;-73
2022/12/25 07:09:28;;;;;;;27.48;12.07;;;;;;;5.05;62.16;101315.91;4889134;29;20084;-70
2022/12/25 07:11:53;;;;;;;40.45;12.05;;;;;;;5.38;61.84;101307.81;4896499;28;20036;-74
2022/12/25 07:14:21;;;;;;;36.78;12.95;;;;;;;5.32;61.63;101308.72;4910231;29;20095;-71
2022/12/25 07:16:48;;;;;;;44.13;13.93;;;;;;;5.36;61.81;101306.97;4907890;28;20119;-75
2022/12/25 07:19:14;;;;;;;36.15;14.20;;;;;;;5.35;61.69;101303.53;4911792;29;20043;-72
2022/12/25 07:21:39;;;;;;;30.27;12.27;;;;;;;5.14;62.21;101288.19;4921118;28;20051;-71
2022/12/25 07:24:05;;;;;;;35.40;12.68;;;;;;;5.65;60.72;101302.28;4908506;29;20039;-72
2022/12/25 07:26:31;;;;;;;34.88;11.48;;;;;;;5.38;61.99;101302.63;4900772;28;20510;-71
2022/12/25 07:28:56;;;;;;;33.72;11.88;;;;;;;5.56;60.96;101299.81;4888019;29;20050;-72
2022/12/25 07:31:22;;;;;;;27.02;11.80;;;;;;;5.61;61.11;101299.75;4892954;28;20083;-72
2022/12/25 07:33:47;;;;;;;25.63;11.30;;;;;;;5.80;60.64;101295.22;4906473;29;20035;-71
2022/12/25 07:36:13;;;;;;;36.28;14.43;;;;;;;5.63;60.75;101304.03;4906406;28;20072;-71
2022/12/25 07:38:43;;;;;;;30.83;12.35;;;;;;;5.81;60.76;101296.91;4903505;29;20035;-71
2022/12/25 07:41:11;;;;;;;34.50;13.23;;;;;;;5.73;60.83;101293.56;4908778;29;20513;-71
2022/12/25 07:43:37;;;;;;;38.45;12.93;;;;;;;5.28;61.93;101298.41;4906559;29;20594;-71
2022/12/25 07:46:03;;;;;;;32.97;13.55;;;;;;;5.81;60.89;101289.97;4907309;28;20062;-71
2022/12/25 07:48:29;;;;;;;22.63;12.50;;;;;;;5.78;60.61;101286.59;4907339;29;20035;-71
2022/12/25 07:50:59;;;;;;;36.55;12.20;;;;;;;5.81;61.31;101286.53;4895184;28;20110;-71
2022/12/25 07:53:25;;;;;;;31.42;11.48;;;;;;;5.50;61.83;101281.72;4907586;29;20036;-71
2022/12/25 07:55:57;;;;;;;34.40;12.27;;;;;;;5.83;60.78;101282.19;4902992;28;20036;-71
2022/12/25 07:58:24;;;;;;;38.45;12.93;;;;;;;6.01;60.08;101283.66;4936849;28;20651;-71
2022/12/25 08:00:50;;;;;;;28.45;11.05;;;;;;;6.00;60.12;101282.81;4907965;28;20043;-71
2022/12/25 08:03:15;;;;;;;35.42;12.40;;;;;;;6.09;60.04;101284.41;4911337;29;20724;-71
2022/12/25 08:05:41;;;;;;;36.30;14.27;;;;;;;5.65;61.26;101294.50;4910209;29;20929;-71
2022/12/25 08:08:06;;;;;;;35.00;11.90;;;;;;;5.53;61.77;101297.28;4914064;28;20039;-72
2022/12/25 08:10:32;;;;;;;24.90;11.02;;;;;;;5.94;60.59;101303.66;4912800;29;20851;-71
2022/12/25 08:12:57;;;;;;;35.75;12.05;;;;;;;5.14;62.67;101306.34;4911029;28;20502;-71
2022/12/25 08:15:23;;;;;;;28.92;13.18;;;;;;;5.32;62.98;101297.50;4912516;29;20055;-71
2022/12/25 08:17:48;;;;;;;30.88;11.48;;;;;;;5.62;61.97;101304.94;4912801;28;20043;-71
2022/12/25 08:20:16;;;;;;;41.70;12.50;;;;;;;6.00;60.51;101298.38;4914841;29;20042;-70
2022/12/25 08:22:42;;;;;;;38.65;12.38;;;;;;;6.12;59.85;101301.69;4910555;28;20126;-71
2022/12/25 08:25:08;;;;;;;36.65;12.70;;;;;;;5.80;61.13;101319.41;4911784;29;20066;-71
2022/12/25 08:27:34;;;;;;;37.55;13.10;;;;;;;5.95;60.92;101318.34;4910127;28;20044;-71
2022/12/25 08:30:00;;;;;;;35.03;12.18;;;;;;;6.11;60.46;101312.94;4912657;29;20143;-71
2022/12/25 08:32:25;;;;;;;35.65;12.65;;;;;;;6.04;60.30;101317.38;4911120;28;20758;-71
2022/12/25 08:34:51;;;;;;;27.38;11.00;;;;;;;6.09;60.65;101316.41;4913143;29;20098;-71
2022/12/25 08:37:16;;;;;;;31.55;13.70;;;;;;;6.20;60.05;101321.44;4915139;29;20059;-73
2022/12/25 08:39:42;;;;;;;38.67;13.43;;;;;;;5.98;60.63;101325.22;4914836;29;20196;-70
2022/12/25 08:42:07;;;;;;;37.30;13.65;;;;;;;6.05;60.57;101312.13;4916897;29;20392;-70
2022/12/25 08:44:33;;;;;;;36.13;13.50;;;;;;;5.76;61.58;101319.47;4917412;29;20051;-71
2022/12/25 08:46:58;;;;;;;29.38;14.00;;;;;;;5.62;62.24;101315.31;4919217;29;20035;-70
2022/12/25 08:49:26;;;;;;;39.72;15.18;;;;;;;5.94;61.17;101323.56;4920747;29;20094;-70
2022/12/25 08:51:52;;;;;;;37.38;13.40;;;;;;;5.89;61.54;101326.22;4921789;29;20717;-71
2022/12/25 08:54:17;;;;;;;40.95;15.25;;;;;;;5.91;61.59;101321.00;4919906;29;20050;-71
2022/12/25 08:56:43;;;;;;;39.08;13.23;;;;;;;6.11;60.85;101315.56;4909323;29;20191;-71
2022/12/25 08:59:08;;;;;;;34.90;13.35;;;;;;;5.69;62.08;101320.44;4914930;29;20610;-71
2022/12/25 09:01:34;;;;;;;39.28;13.88;;;;;;;5.96;61.44;101312.28;4915876;29;20042;-71
2022/12/25 09:03:59;;;;;;;27.80;13.43;;;;;;;6.14;60.88;101311.16;4929222;28;20482;-71
2022/12/25 09:06:25;;;;;;;29.02;13.65;;;;;;;5.83;61.52;101321.09;4913941;29;20067;-71
2022/12/25 09:08:50;;;;;;;32.75;13.70;;;;;;;6.18;60.52;101322.38;4911602;29;20031;-71
2022/12/25 09:11:18;;;;;;;39.45;14.55;;;;;;;5.83;61.26;101327.13;4916450;29;20066;-70
2022/12/25 09:13:43;;;;;;;39.35;14.43;;;;;;;6.01;61.62;101332.97;4913431;29;20020;-71
2022/12/25 09:16:13;;;;;;;44.40;13.90;;;;;;;6.07;61.05;101317.31;4915991;29;20038;-70
2022/12/25 09:18:38;;;;;;;42.78;15.68;;;;;;;6.15;60.73;101312.00;4914214;29;20432;-70
2022/12/25 09:21:07;;;;;;;42.60;15.90;;;;;;;6.13;61.03;101318.94;4916420;29;20039;-70
2022/12/25 09:23:33;;;;;;;36.20;14.82;;;;;;;6.10;61.05;101335.44;4913968;29;20057;-71
2022/12/25 09:25:59;;;;;;;31.30;13.65;;;;;;;5.97;61.68;101334.75;4912629;29;20115;-71
2022/12/25 09:28:25;;;;;;;47.22;14.77;;;;;;;6.20;60.60;101326.66;4913038;29;20048;-71
2022/12/25 09:30:52;;;;;;;35.65;14.52;;;;;;;6.34;60.10;101325.63;4911099;29;20050;-71
2022/12/25 09:33:19;;;;;;;35.92;13.55;;;;;;;6.15;61.07;101327.56;4914022;29;20497;-71
2022/12/25 09:35:59;;;;;;;37.53;15.93;;;;;;;6.40;59.84;101326.38;4915246;29;20378;-71
2022/12/25 09:38:25;;;;;;;37.67;15.57;;;;;;;6.49;59.75;101328.84;4914364;29;20035;-72
2022/12/25 09:41:06;;;;;;;41.22;13.93;;;;;;;6.64;59.38;101321.66;4913416;29;20365;-71
2022/12/25 09:43:38;;;;;;;47.05;14.73;;;;;;;6.25;60.23;101318.78;4913910;29;20589;-71
2022/12/25 09:46:08;;;;;;;39.08;14.85;;;;;;;6.53;59.38;101326.19;4913712;29;20066;-71
2022/12/25 09:48:39;;;;;;;49.08;14.98;;;;;;;6.40;60.01;101321.19;4914106;29;20063;-71
2022/12/25 09:51:12;;;;;;;33.97;14.77;;;;;;;6.62;59.03;101313.91;4915270;29;20032;-71
2022/12/25 09:53:40;;;;;;;31.55;13.07;;;;;;;6.45;59.68;101305.53;4912291;29;20042;-71
2022/12/25 09:56:18;;;;;;;36.72;14.00;;;;;;;6.62;59.28;101298.34;4912921;29;20039;-70
2022/12/25 09:58:44;;;;;;;38.70;14.23;;;;;;;6.50;59.52;101293.31;4896030;29;20118;-71
2022/12/25 10:01:52;;;;;;;33.35;13.10;;;;;;;6.72;59.00;101298.19;4915123;29;20563;-70
2022/12/25 10:04:59;;;;;;;30.58;14.52;;;;;;;6.65;59.51;101303.47;4912934;29;20043;-69
2022/12/25 10:07:34;;;;;;;30.77;13.52;;;;;;;6.80;58.84;101307.56;4885509;29;20055;-70
2022/12/25 10:10:36;;;;;;;28.77;12.65;;;;;;;6.66;59.18;101304.31;4914706;29;20173;-70
2022/12/25 10:13:28;;;;;;;33.75;12.20;;;;;;;6.60;59.25;101299.25;4914361;29;20031;-70
2022/12/25 10:16:20;;;;;;;26.13;12.13;;;;;;;6.82;59.04;101289.31;4927689;28;20039;-72
2022/12/25 10:18:59;;;;;;;26.35;12.50;;;;;;;6.70;58.94;101290.41;4863871;29;20094;-72
2022/12/25 10:21:26;;;;;;;32.05;12.45;;;;;;;6.89;58.41;101297.00;4910137;29;20347;-72
2022/12/25 10:24:11;;;;;;;21.70;11.27;;;;;;;6.89;58.76;101291.81;4912120;29;20043;-71
2022/12/25 10:26:36;;;;;;;23.02;11.70;;;;;;;6.86;58.29;101273.69;4911661;29;20061;-72
2022/12/25 10:29:15;;;;;;;23.50;11.98;;;;;;;6.59;59.51;101281.94;4912616;29;20044;-72
2022/12/25 10:31:44;;;;;;;26.08;10.65;;;;;;;6.94;58.35;101288.28;4913588;29;20031;-72
2022/12/25 10:34:12;;;;;;;29.13;11.35;;;;;;;6.85;58.23;101278.88;4913115;29;20036;-72
2022/12/25 10:36:38;;;;;;;27.05;10.88;;;;;;;6.86;58.54;101254.59;4912876;29;20501;-70
2022/12/25 10:39:03;;;;;;;28.60;13.20;;;;;;;6.83;58.43;101245.13;4923643;29;20036;-69
2022/12/25 10:41:50;;;;;;;28.67;11.30;;;;;;;6.32;60.31;101247.75;4927618;29;20074;-70
2022/12/25 10:44:19;;;;;;;22.80;10.10;;;;;;;6.63;59.13;101242.88;4912557;29;20046;-71
2022/12/25 10:47:11;;;;;;;23.73;9.95;;;;;;;6.31;59.98;101234.78;4909964;29;20576;-70
2022/12/25 10:49:37;;;;;;;23.50;9.20;;;;;;;6.75;58.95;101223.63;4905501;29;20142;-71
2022/12/25 10:52:18;;;;;;;19.58;9.38;;;;;;;6.94;58.35;101220.69;4911083;29;20642;-70
2022/12/25 10:54:44;;;;;;;24.85;8.55;;;;;;;6.86;58.37;101229.50;4924096;28;20050;-71
2022/12/25 10:57:15;;;;;;;21.45;9.07;;;;;;;7.00;58.15;101226.63;4911394;29;20031;-71
2022/12/25 10:59:43;;;;;;;18.17;8.93;;;;;;;6.99;58.27;101235.31;4903937;29;20924;-72
2022/12/25 11:02:14;;;;;;;19.50;8.35;;;;;;;7.05;58.03;101227.41;4911351;29;20042;-72
2022/12/25 11:04:41;;;;;;;22.38;7.47;;;;;;;6.79;59.00;101233.06;4909079;29;20710;-70
2022/12/25 11:07:18;;;;;;;20.60;8.80;;;;;;;6.95;58.20;101232.78;4911717;29;20092;-72
2022/12/25 11:10:01;;;;;;;27.42;8.43;;;;;;;6.98;58.22;101236.19;4925404;28;20079;-72
2022/12/25 11:12:41;;;;;;;17.83;8.40;;;;;;;7.01;57.73;101238.72;4910942;29;20079;-71
2022/12/25 11:15:37;;;;;;;26.85;8.30;;;;;;;6.92;58.15;101241.50;4910168;29;20245;-72
2022/12/25 11:18:20;;;;;;;15.18;6.95;;;;;;;6.96;58.08;101244.91;4907937;29;20103;-72
2022/12/25 11:20:54;;;;;;;20.77;7.35;;;;;;;6.90;58.24;101240.69;4909679;29;20118;-72
2022/12/25 11:23:22;;;;;;;16.65;6.95;;;;;;;6.95;58.13;101240.59;4910183;29;20137;-72
2022/12/25 11:25:55;;;;;;;18.27;7.50;;;;;;;6.99;57.81;101234.44;4907398;29;20122;-71
2022/12/25 11:28:21;;;;;;;16.48;6.88;;;;;;;7.05;57.94;101234.34;4911348;29;20579;-72
2022/12/25 11:30:52;;;;;;;16.25;7.38;;;;;;;7.02;57.97;101235.25;4909531;29;20035;-71
2022/12/25 11:33:19;;;;;;;23.13;8.18;;;;;;;6.82;58.56;101234.75;4909861;29;20036;-71
2022/12/25 11:35:51;;;;;;;20.65;6.95;;;;;;;6.91;57.97;101238.06;4911298;29;20036;-71
2022/12/25 11:38:16;;;;;;;;;;;;;;;6.94;58.02;101236.28;4915447;29;20107;-72
2022/12/25 11:40:47;;;;;;;18.20;7.28;;;;;;;6.09;60.47;101222.13;4913757;29;19922;-71
2022/12/25 11:43:26;;;;;;;15.88;6.68;;;;;;;6.80;58.79;101214.03;4910715;29;20469;-71
2022/12/25 11:46:14;;;;;;;17.23;6.72;;;;;;;7.03;57.95;101207.53;4908948;29;20487;-71
2022/12/25 11:48:46;;;;;;;13.98;6.05;;;;;;;7.03;57.90;101199.72;4907967;28;20036;-71
2022/12/25 11:51:14;;;;;;;11.95;5.88;;;;;;;7.18;57.73;101194.22;4912136;29;20036;-71
2022/12/25 11:53:57;;;;;;;18.02;7.07;;;;;;;7.25;57.79;101190.59;4906868;28;20216;-71
2022/12/25 11:56:26;;;;;;;13.25;6.72;;;;;;;7.17;57.77;101184.69;4909985;29;20047;-71
2022/12/25 11:59:07;;;;;;;14.13;5.57;;;;;;;7.32;57.51;101173.97;4908202;28;20150;-71
2022/12/25 12:01:41;;;;;;;19.30;6.53;;;;;;;7.30;57.16;101167.09;4911530;29;20134;-71
2022/12/25 12:04:21;;;;;;;10.82;5.50;;;;;;;7.41;56.78;101161.66;4909301;28;20138;-71
2022/12/25 12:06:50;;;;;;;18.20;7.05;;;;;;;7.33;56.97;101167.91;4908757;29;20494;-70
2022/12/25 12:09:44;;;;;;;15.45;6.85;;;;;;;7.25;57.40;101168.94;4920936;28;20743;-71
2022/12/25 12:12:28;;;;;;;12.77;7.07;;;;;;;7.29;57.08;101168.84;4909726;29;20028;-71
2022/12/25 12:15:02;;;;;;;11.82;6.40;;;;;;;7.27;57.25;101164.56;4907640;28;20051;-70
2022/12/25 12:17:28;;;;;;;21.27;7.20;;;;;;;7.14;57.75;101153.56;4909261;29;20224;-71
2022/12/25 12:19:53;;;;;;;13.68;6.25;;;;;;;7.31;57.36;101142.78;4908338;28;20548;-71
2022/12/25 12:22:22;;;;;;;12.95;6.55;;;;;;;7.21;57.30;101138.69;4909341;29;20028;-71
2022/12/25 12:24:56;;;;;;;14.35;5.80;;;;;;;7.30;57.12;101135.91;4903762;28;20111;-71
2022/12/25 12:27:39;;;;;;;16.52;6.55;;;;;;;7.27;57.38;101129.03;4910112;29;20130;-71
2022/12/25 12:30:06;;;;;;;12.38;6.57;;;;;;;7.10;57.45;101133.72;4907225;28;20066;-71
2022/12/25 12:32:44;;;;;;;18.25;6.68;;;;;;;7.21;57.42;101130.91;4909766;29;20039;-70
2022/12/25 12:35:18;;;;;;;9.80;5.53;;;;;;;6.95;57.95;101129.69;4911984;28;20154;-71
2022/12/25 12:37:48;;;;;;;13.77;6.03;;;;;;;7.04;57.27;101118.25;4903546;29;20057;-70
2022/12/25 12:40:38;;;;;;;15.93;6.53;;;;;;;7.02;57.80;101122.63;4910476;28;20048;-71
2022/12/25 12:43:06;;;;;;;17.33;6.55;;;;;;;7.06;57.29;101116.47;4906254;29;20051;-70
2022/12/25 12:45:35;;;;;;;15.82;7.10;;;;;;;6.95;57.65;101123.66;4910792;28;20576;-71
2022/12/25 12:48:12;;;;;;;13.10;5.78;;;;;;;6.99;57.54;101120.94;4908404;29;20039;-71
2022/12/25 12:50:40;;;;;;;16.48;6.13;;;;;;;6.95;57.42;101110.66;4907569;28;20054;-71
2022/12/25 12:53:21;;;;;;;14.95;6.95;;;;;;;7.00;57.44;101119.19;4909191;29;20883;-71
2022/12/25 12:55:47;;;;;;;9.65;5.78;;;;;;;7.01;57.45;101103.59;4906448;28;20520;-71
2022/12/25 12:58:34;;;;;;;12.65;5.57;;;;;;;7.03;57.18;101100.97;4910485;29;20293;-71
2022/12/25 13:01:25;;;;;;;18.20;7.57;;;;;;;7.00;57.54;101103.59;4907037;29;20044;-71
2022/12/25 13:04:12;;;;;;;11.38;5.80;;;;;;;6.99;57.35;101107.13;4905662;28;20521;-71
2022/12/25 13:06:54;;;;;;;16.45;6.80;;;;;;;6.98;57.54;101105.41;4907998;29;20043;-71
2022/12/25 13:09:42;;;;;;;14.38;6.60;;;;;;;6.82;57.98;101097.94;4906806;28;20051;-71
2022/12/25 13:12:11;;;;;;;12.10;5.95;;;;;;;6.93;57.61;101096.84;4905712;29;20423;-71
2022/12/25 13:14:37;;;;;;;12.43;5.28;;;;;;;6.99;57.33;101104.50;4904670;28;20122;-71
2022/12/25 13:17:07;;;;;;;10.43;5.70;;;;;;;7.02;57.15;101104.44;4905373;28;20205;-71
2022/12/25 13:19:35;;;;;;;10.55;6.10;;;;;;;6.91;57.53;101102.09;4911728;28;20382;-72